Time;durP1;ratioP1;P1;durP2;ratioP2;P2;SDS_P1;SDS_P2;PMS_P1;PMS_P2;Temp;Humidity;BMP_temperature;BMP_pressure;BME280_temperature;BME280_humidity;BME280_pressure;Samples;Min_cycle;Max_cycle;Signal;HPM_P1;HPM_P2
2022/08/21 00:00:24;;;;;;;3.63;1.98;;;;;;;18.31;53.65;97364.00;5009860;27;20189;-77
2022/08/21 00:02:54;;;;;;;4.22;2.10;;;;;;;18.27;53.69;97365.66;5001927;27;20235;-77
2022/08/21 00:05:20;;;;;;;3.67;1.85;;;;;;;18.24;54.27;97358.31;5019802;27;20134;-76
2022/08/21 00:07:45;;;;;;;2.95;1.90;;;;;;;18.37;53.92;97352.28;5015862;27;20203;-77
2022/08/21 00:10:12;;;;;;;2.38;1.98;;;;;;;18.18;54.70;97355.00;5019514;27;20626;-77
2022/08/21 00:12:37;;;;;;;2.95;1.90;;;;;;;18.18;54.91;97359.47;4990896;27;20230;-76
2022/08/21 00:15:05;;;;;;;4.40;2.25;;;;;;;18.04;55.54;97362.06;5019442;27;20793;-76
2022/08/21 00:17:30;;;;;;;4.65;2.30;;;;;;;18.05;55.40;97356.50;5045242;27;20254;-76
2022/08/21 00:19:56;;;;;;;2.90;2.20;;;;;;;18.00;55.44;97358.44;5018750;27;20274;-76
2022/08/21 00:22:21;;;;;;;2.60;1.92;;;;;;;17.92;56.13;97351.97;5016758;27;20247;-76
2022/08/21 00:24:46;;;;;;;3.20;1.90;;;;;;;17.89;55.59;97349.91;5019450;27;20201;-76
2022/08/21 00:27:12;;;;;;;5.30;2.40;;;;;;;17.85;56.42;97346.25;5018110;27;20175;-77
2022/08/21 00:29:37;;;;;;;4.53;2.40;;;;;;;17.82;56.52;97346.81;5043070;27;20269;-77
2022/08/21 00:32:03;;;;;;;4.03;1.75;;;;;;;17.77;56.69;97350.34;5017760;27;20312;-77
2022/08/21 00:34:28;;;;;;;4.03;2.45;;;;;;;17.71;56.62;97352.25;5019216;27;20256;-76
2022/08/21 00:36:53;;;;;;;4.85;2.00;;;;;;;17.68;56.43;97350.16;5035807;27;20688;-76
2022/08/21 00:39:19;;;;;;;2.97;2.10;;;;;;;17.65;56.12;97358.66;5005781;27;20200;-77
2022/08/21 00:41:45;;;;;;;3.10;2.03;;;;;;;17.64;56.17;97351.03;5017164;27;20200;-77
2022/08/21 00:44:13;;;;;;;3.45;2.25;;;;;;;17.65;56.24;97353.41;4993879;28;20609;-77
2022/08/21 00:46:40;;;;;;;4.00;2.00;;;;;;;17.63;55.89;97349.47;5012923;27;20290;-77
2022/08/21 00:49:06;;;;;;;3.28;1.63;;;;;;;17.56;55.89;97355.09;5017209;27;20023;-76
2022/08/21 00:51:39;;;;;;;3.80;1.95;;;;;;;17.35;56.53;97349.34;5006402;27;20354;-76
2022/08/21 00:54:06;;;;;;;3.30;2.03;;;;;;;17.40;56.89;97351.91;5015275;27;20305;-76
2022/08/21 00:56:31;;;;;;;3.67;2.10;;;;;;;17.39;56.67;97345.84;4997296;28;20032;-76
2022/08/21 00:58:58;;;;;;;2.70;1.67;;;;;;;17.36;57.02;97343.78;5018514;27;20616;-76
2022/08/21 01:01:23;;;;;;;3.65;2.15;;;;;;;17.35;57.25;97338.81;5016533;27;20591;-76
2022/08/21 01:03:49;;;;;;;3.80;2.28;;;;;;;17.36;57.39;97340.38;4988470;27;20183;-77
2022/08/21 01:06:14;;;;;;;3.33;1.83;;;;;;;17.35;57.62;97342.22;5016995;27;20582;-76
2022/08/21 01:08:39;;;;;;;3.67;2.72;;;;;;;17.34;57.46;97347.75;5017638;27;20655;-76
2022/08/21 01:11:05;;;;;;;2.33;1.70;;;;;;;17.34;57.56;97343.28;5026583;27;20263;-76
2022/08/21 01:13:34;;;;;;;4.70;2.08;;;;;;;17.26;57.57;97343.16;5010213;27;20588;-76
2022/08/21 01:16:03;;;;;;;3.65;2.00;;;;;;;17.20;57.83;97334.50;5010435;28;20256;-77
2022/08/21 01:18:28;;;;;;;3.55;2.08;;;;;;;17.26;57.89;97340.50;5025091;27;20265;-77
2022/08/21 01:21:18;;;;;;;4.25;2.25;;;;;;;17.03;58.03;97340.25;4997362;28;20702;-77
2022/08/21 01:23:46;;;;;;;3.90;2.10;;;;;;;17.14;57.68;97333.81;4979032;28;20187;-77
2022/08/21 01:26:15;;;;;;;4.22;2.50;;;;;;;17.10;57.52;97342.53;4992527;28;20192;-77
2022/08/21 01:29:03;;;;;;;4.38;2.20;;;;;;;17.01;58.27;97339.75;4990006;28;20197;-77
2022/08/21 01:31:29;;;;;;;3.08;1.90;;;;;;;17.08;57.95;97339.41;5034620;27;20271;-77
2022/08/21 01:33:55;;;;;;;5.80;2.40;;;;;;;17.05;58.22;97340.78;5006151;27;20302;-76
2022/08/21 01:36:22;;;;;;;4.50;2.60;;;;;;;17.04;57.85;97339.97;4973536;28;20241;-76
2022/08/21 01:38:47;;;;;;;6.75;2.63;;;;;;;17.08;57.97;97334.16;5002078;28;20195;-76
2022/08/21 01:41:14;;;;;;;4.13;2.45;;;;;;;17.06;57.95;97331.03;5019480;28;20235;-77
2022/08/21 01:43:40;;;;;;;3.90;2.20;;;;;;;17.02;57.94;97334.22;5007826;28;20256;-76
2022/08/21 01:46:06;;;;;;;4.43;2.28;;;;;;;17.02;57.75;97342.09;5027999;28;20320;-77
2022/08/21 01:48:32;;;;;;;3.13;2.30;;;;;;;16.98;58.47;97337.69;4985711;28;20298;-77
2022/08/21 01:50:57;;;;;;;3.20;2.30;;;;;;;17.03;57.93;97337.63;5001930;28;20209;-77
2022/08/21 01:53:23;;;;;;;3.03;1.98;;;;;;;16.98;58.00;97332.41;5014853;28;20197;-77
2022/08/21 01:55:48;;;;;;;4.50;2.05;;;;;;;16.97;57.96;97331.63;4988189;28;20198;-77
2022/08/21 01:58:14;;;;;;;4.45;2.35;;;;;;;16.85;58.09;97333.91;4984808;28;20585;-77
2022/08/21 02:00:39;;;;;;;3.42;2.10;;;;;;;16.84;57.70;97322.59;5012988;28;20595;-76
2022/08/21 02:03:05;;;;;;;4.30;2.15;;;;;;;16.85;57.60;97328.63;5023027;28;20201;-77
2022/08/21 02:05:31;;;;;;;3.53;2.00;;;;;;;16.80;57.64;97324.19;4997097;27;20200;-76
2022/08/21 02:07:56;;;;;;;3.85;1.90;;;;;;;16.75;58.20;97328.72;5014629;27;20282;-77
2022/08/21 02:10:26;;;;;;;6.15;2.78;;;;;;;16.65;58.34;97325.13;4983221;28;20717;-76
2022/08/21 02:12:52;;;;;;;4.35;2.10;;;;;;;16.60;58.37;97322.56;4984584;28;20164;-76
2022/08/21 02:15:18;;;;;;;2.60;2.00;;;;;;;16.62;58.18;97325.72;4998746;27;20624;-77
2022/08/21 02:17:50;;;;;;;2.70;2.30;;;;;;;16.46;58.29;97324.28;5009704;27;20840;-76
2022/08/21 02:20:20;;;;;;;2.33;1.83;;;;;;;16.45;58.25;97315.63;4990665;28;20248;-76
2022/08/21 02:22:46;;;;;;;3.38;2.08;;;;;;;16.46;58.19;97319.03;5002882;28;20125;-76
2022/08/21 02:25:12;;;;;;;4.25;2.00;;;;;;;16.35;58.80;97310.47;4994606;28;20347;-76
2022/08/21 02:27:42;;;;;;;3.88;2.00;;;;;;;16.19;58.76;97309.03;5012440;28;20067;-76
2022/08/21 02:30:12;;;;;;;3.97;2.00;;;;;;;16.17;59.07;97314.56;5040952;28;20036;-76
2022/08/21 02:32:38;;;;;;;3.42;1.95;;;;;;;16.20;58.88;97313.25;5030833;28;20129;-76
2022/08/21 02:35:07;;;;;;;4.00;2.20;;;;;;;16.16;58.92;97315.66;5081790;28;20130;-76
2022/08/21 02:37:32;;;;;;;3.10;2.03;;;;;;;16.08;59.56;97314.38;5060248;28;20578;-76
2022/08/21 02:40:00;;;;;;;3.40;2.03;;;;;;;16.00;59.73;97314.19;5026048;28;20281;-76
2022/08/21 02:42:25;;;;;;;5.50;2.10;;;;;;;16.04;59.94;97316.00;4990944;28;20632;-77
2022/08/21 02:44:51;;;;;;;4.82;2.30;;;;;;;16.00;60.20;97316.81;4981484;28;20289;-76
2022/08/21 02:47:17;;;;;;;2.35;2.10;;;;;;;15.94;60.36;97310.84;5008115;28;20202;-76
2022/08/21 02:49:43;;;;;;;3.30;2.35;;;;;;;15.89;60.62;97306.41;4991617;28;20048;-76
2022/08/21 02:52:09;;;;;;;2.88;2.42;;;;;;;15.89;60.48;97311.66;5088064;28;20184;-76
2022/08/21 02:54:35;;;;;;;4.43;2.35;;;;;;;15.89;60.62;97316.13;5078559;28;20639;-75
2022/08/21 02:57:00;;;;;;;4.72;2.80;;;;;;;15.86;61.05;97317.44;5070535;28;20394;-77
2022/08/21 02:59:26;;;;;;;4.15;2.35;;;;;;;15.89;61.21;97313.50;5059169;27;20288;-76
2022/08/21 03:01:52;;;;;;;5.60;2.88;;;;;;;15.88;61.40;97320.59;5003587;28;20366;-75
2022/08/21 03:04:18;;;;;;;4.53;2.30;;;;;;;15.88;60.97;97312.72;4997760;28;20190;-76
2022/08/21 03:06:43;;;;;;;3.17;2.28;;;;;;;15.84;61.26;97306.44;5002684;28;20308;-76
2022/08/21 03:09:08;;;;;;;5.07;2.50;;;;;;;15.89;61.05;97313.50;5009484;28;20277;-76
2022/08/21 03:11:35;;;;;;;5.57;3.25;;;;;;;15.84;61.04;97309.06;5009206;28;20287;-76
2022/08/21 03:14:00;;;;;;;4.50;2.60;;;;;;;15.84;61.05;97308.31;4981484;28;20271;-76
2022/08/21 03:16:26;;;;;;;3.20;2.40;;;;;;;15.85;60.97;97307.22;5003376;28;20211;-77
2022/08/21 03:18:52;;;;;;;3.45;3.08;;;;;;;15.85;60.83;97315.91;5008837;28;20202;-76
2022/08/21 03:21:18;;;;;;;3.72;2.25;;;;;;;15.84;61.05;97306.44;4997943;28;20188;-77
2022/08/21 03:23:44;;;;;;;5.07;2.25;;;;;;;15.84;60.85;97303.03;5009373;28;20163;-76
2022/08/21 03:26:10;;;;;;;4.38;1.98;;;;;;;15.90;60.61;97307.97;4997553;28;20205;-76
2022/08/21 03:28:36;;;;;;;3.67;2.25;;;;;;;15.89;60.42;97300.38;4987903;28;20052;-76
2022/08/21 03:31:02;;;;;;;4.47;2.20;;;;;;;15.85;60.50;97294.09;5059348;28;20070;-76
2022/08/21 03:33:27;;;;;;;5.47;2.30;;;;;;;15.78;60.75;97304.13;5053628;28;20024;-76
2022/08/21 03:36:19;;;;;;;5.50;2.88;;;;;;;15.56;60.99;97302.69;5089675;28;20023;-75
2022/08/21 03:38:45;;;;;;;4.47;2.67;;;;;;;15.71;61.09;97301.78;4998090;28;20364;-77
2022/08/21 03:41:10;;;;;;;4.70;2.60;;;;;;;15.66;61.82;97312.31;4972217;28;20648;-76
2022/08/21 03:43:36;;;;;;;3.42;2.90;;;;;;;15.74;61.71;97309.13;4987352;28;20610;-76
2022/08/21 03:46:03;;;;;;;5.07;2.95;;;;;;;15.70;61.71;97302.88;4960001;28;20288;-76
2022/08/21 03:48:29;;;;;;;3.80;2.70;;;;;;;15.71;61.77;97310.47;4987471;28;20288;-76
2022/08/21 03:50:54;;;;;;;5.80;2.67;;;;;;;15.77;61.80;97303.34;4993993;28;20151;-76
2022/08/21 03:53:20;;;;;;;5.43;2.70;;;;;;;15.75;61.73;97305.47;4987165;28;20254;-76
2022/08/21 03:55:47;;;;;;;5.15;2.80;;;;;;;15.74;62.15;97309.91;4988389;28;20277;-77
2022/08/21 03:58:14;;;;;;;9.43;3.22;;;;;;;15.77;62.14;97310.47;4998053;28;20197;-76
2022/08/21 04:00:39;;;;;;;6.10;3.67;;;;;;;15.73;62.22;97305.72;4995747;28;20206;-77
2022/08/21 04:03:06;;;;;;;4.22;2.92;;;;;;;15.74;62.05;97309.13;4980082;28;20227;-77
2022/08/21 04:05:32;;;;;;;4.93;2.80;;;;;;;15.74;62.06;97307.28;4984565;27;20594;-76
2022/08/21 04:08:00;;;;;;;5.28;2.90;;;;;;;15.70;62.13;97301.00;5011371;27;20077;-77
2022/08/21 04:10:27;;;;;;;5.88;2.95;;;;;;;15.66;62.43;97301.81;4999999;27;20568;-76
2022/08/21 04:12:53;;;;;;;5.53;2.75;;;;;;;15.66;62.26;97296.56;5008580;28;20276;-76
2022/08/21 04:15:18;;;;;;;3.95;2.88;;;;;;;15.67;62.31;97298.16;5020565;27;20169;-76
2022/08/21 04:17:44;;;;;;;3.70;2.72;;;;;;;15.64;61.95;97298.69;5028145;27;20645;-76
2022/08/21 04:20:09;;;;;;;4.55;3.00;;;;;;;15.64;62.03;97296.06;5011478;27;20216;-76
2022/08/21 04:22:35;;;;;;;3.60;2.42;;;;;;;15.64;62.36;97301.31;4992321;27;20184;-76
2022/08/21 04:25:00;;;;;;;6.85;2.83;;;;;;;15.63;62.34;97305.03;5011248;27;20272;-76
2022/08/21 04:27:25;;;;;;;3.65;2.85;;;;;;;15.64;62.25;97312.59;4998842;28;20232;-77
2022/08/21 04:29:51;;;;;;;4.13;2.70;;;;;;;15.62;62.13;97313.94;5005287;28;20617;-77
2022/08/21 04:32:23;;;;;;;4.28;2.85;;;;;;;15.51;62.25;97318.47;4989163;28;20170;-76
2022/08/21 04:34:49;;;;;;;7.05;3.20;;;;;;;15.59;61.98;97322.34;5003950;28;20028;-76
2022/08/21 04:37:15;;;;;;;4.82;3.42;;;;;;;15.57;62.35;97321.84;5005688;27;20702;-76
2022/08/21 04:39:41;;;;;;;4.68;2.97;;;;;;;15.57;62.70;97330.50;5050404;27;20775;-76
2022/08/21 04:42:07;;;;;;;5.53;3.38;;;;;;;15.53;62.23;97334.72;5022203;27;20103;-76
2022/08/21 04:44:32;;;;;;;4.78;3.55;;;;;;;15.57;62.87;97330.50;4985277;28;20174;-76
2022/08/21 04:46:58;;;;;;;5.50;3.15;;;;;;;15.58;62.46;97326.81;4975335;28;20619;-76
2022/08/21 04:49:23;;;;;;;5.43;3.38;;;;;;;15.59;62.72;97330.22;5026157;27;20031;-76
2022/08/21 04:51:49;;;;;;;4.63;3.20;;;;;;;15.61;62.68;97338.59;5021084;27;20038;-76
2022/08/21 04:54:19;;;;;;;7.43;3.88;;;;;;;15.52;62.78;97336.59;4975071;28;20784;-77
2022/08/21 04:56:50;;;;;;;7.43;3.40;;;;;;;15.62;62.23;97338.34;4980580;28;20119;-76
2022/08/21 04:59:20;;;;;;;5.60;3.30;;;;;;;15.62;62.37;97343.59;5003017;27;20027;-76
2022/08/21 05:01:46;;;;;;;5.15;3.13;;;;;;;15.72;62.61;97348.00;5028266;27;20046;-76
2022/08/21 05:04:14;;;;;;;5.20;3.28;;;;;;;15.69;62.54;97340.66;4997097;28;20757;-76
2022/08/21 05:06:41;;;;;;;6.05;3.67;;;;;;;15.72;62.38;97340.13;4975768;28;20110;-76
2022/08/21 05:09:09;;;;;;;4.57;2.88;;;;;;;15.79;62.51;97343.25;4989090;28;20728;-76
2022/08/21 05:11:34;;;;;;;7.18;3.25;;;;;;;15.82;62.36;97350.56;5003755;28;20136;-76
2022/08/21 05:14:00;;;;;;;6.72;3.25;;;;;;;15.87;62.52;97340.03;4988077;28;20286;-76
2022/08/21 05:16:26;;;;;;;5.60;3.53;;;;;;;15.91;62.37;97346.28;4989854;28;20020;-76
2022/08/21 05:18:51;;;;;;;5.43;3.38;;;;;;;16.00;62.76;97349.13;4993512;28;20100;-76
2022/08/21 05:21:17;;;;;;;3.50;2.85;;;;;;;16.07;62.95;97346.97;5018034;28;20016;-76
2022/08/21 05:23:42;;;;;;;11.45;3.20;;;;;;;16.13;62.88;97342.47;4998180;28;20487;-76
2022/08/21 05:26:08;;;;;;;7.25;3.53;;;;;;;16.21;62.78;97344.50;4977932;27;20059;-76
2022/08/21 05:28:34;;;;;;;4.57;3.05;;;;;;;16.28;62.32;97344.97;5008291;28;20028;-76
2022/08/21 05:30:59;;;;;;;5.70;3.20;;;;;;;16.36;62.06;97345.41;4957733;28;20134;-76
2022/08/21 05:33:25;;;;;;;6.07;2.85;;;;;;;16.42;61.67;97344.31;4991377;28;20812;-76
2022/08/21 05:35:51;;;;;;;6.32;3.10;;;;;;;16.49;61.42;97347.38;5003229;28;20028;-76
2022/08/21 05:38:17;;;;;;;5.10;3.33;;;;;;;16.57;61.42;97354.69;4994434;28;20039;-76
2022/08/21 05:40:43;;;;;;;4.63;2.75;;;;;;;16.63;61.45;97350.91;4988758;28;20240;-76
2022/08/21 05:43:09;;;;;;;4.07;2.75;;;;;;;16.73;61.16;97354.53;4992700;28;20682;-76
2022/08/21 05:45:34;;;;;;;4.28;3.15;;;;;;;16.81;60.87;97352.06;4991392;28;20073;-76
2022/08/21 05:48:07;;;;;;;4.25;2.95;;;;;;;16.78;60.44;97355.25;4992476;28;20057;-76
2022/08/21 05:50:33;;;;;;;5.38;2.75;;;;;;;16.92;59.70;97350.13;4993800;28;20032;-76
2022/08/21 05:52:58;;;;;;;3.92;2.45;;;;;;;16.94;59.51;97349.84;4988157;28;20123;-76
2022/08/21 05:55:24;;;;;;;4.63;3.22;;;;;;;16.98;59.02;97356.09;5010174;28;20032;-76
2022/08/21 05:57:49;;;;;;;4.63;2.65;;;;;;;16.99;58.91;97350.56;5027857;28;20035;-76
2022/08/21 06:00:16;;;;;;;5.60;2.65;;;;;;;17.01;58.73;97351.03;5013677;28;20042;-76
2022/08/21 06:02:41;;;;;;;5.10;2.65;;;;;;;17.11;58.55;97355.41;5008183;28;20028;-76
2022/08/21 06:05:07;;;;;;;5.75;2.88;;;;;;;17.21;58.34;97354.50;4998812;28;20084;-76
2022/08/21 06:07:33;;;;;;;6.03;3.33;;;;;;;17.32;58.12;97358.56;5030526;28;20045;-77
2022/08/21 06:09:58;;;;;;;3.53;2.58;;;;;;;17.41;57.92;97354.25;5006971;28;20045;-77
2022/08/21 06:12:25;;;;;;;4.85;2.50;;;;;;;17.50;57.82;97350.97;4990881;28;20055;-76
2022/08/21 06:14:51;;;;;;;4.88;3.10;;;;;;;17.63;57.63;97355.50;4974293;28;20032;-76
2022/08/21 06:17:17;;;;;;;4.05;2.40;;;;;;;17.73;57.58;97354.59;4997669;28;20031;-77
2022/08/21 06:19:42;;;;;;;3.95;2.83;;;;;;;17.84;57.60;97349.94;4993910;28;20023;-77
2022/08/21 06:22:08;;;;;;;5.25;3.03;;;;;;;17.96;57.58;97350.34;4993249;28;20973;-76
2022/08/21 06:24:33;;;;;;;4.97;2.78;;;;;;;18.10;57.08;97343.25;5008882;28;20607;-77
2022/08/21 06:27:05;;;;;;;5.28;2.80;;;;;;;18.13;57.38;97347.94;5009195;28;20061;-77
2022/08/21 06:29:30;;;;;;;4.57;3.08;;;;;;;18.38;57.12;97348.56;4991322;28;20024;-76
2022/08/21 06:31:55;;;;;;;5.55;2.90;;;;;;;18.55;56.88;97350.66;4990674;28;20024;-76
2022/08/21 06:34:21;;;;;;;5.05;2.72;;;;;;;18.66;56.40;97338.03;5020047;28;20031;-76
2022/08/21 06:36:46;;;;;;;3.92;2.88;;;;;;;18.83;56.11;97338.28;4995037;28;20754;-77
2022/08/21 06:39:13;;;;;;;4.90;2.80;;;;;;;18.99;55.64;97338.75;4988837;28;20197;-77
2022/08/21 06:41:38;;;;;;;5.05;2.65;;;;;;;19.21;55.13;97343.34;5008941;28;20815;-77
2022/08/21 06:44:04;;;;;;;4.28;2.63;;;;;;;19.39;55.02;97346.13;5000747;28;20036;-77
2022/08/21 06:46:30;;;;;;;4.18;2.90;;;;;;;19.61;54.30;97340.09;5005541;28;20036;-77
2022/08/21 06:48:56;;;;;;;5.47;2.83;;;;;;;19.79;53.70;97352.41;5001014;28;20034;-77
2022/08/21 06:51:22;;;;;;;4.00;3.10;;;;;;;19.99;53.29;97340.56;5014757;27;20926;-77
2022/08/21 06:53:48;;;;;;;4.85;2.83;;;;;;;20.24;52.61;97345.50;5012662;28;20183;-76
2022/08/21 06:56:13;;;;;;;7.40;2.83;;;;;;;20.45;49.24;97340.50;5012556;27;20196;-77
2022/08/21 06:58:39;;;;;;;5.50;2.58;;;;;;;20.73;48.29;97341.91;5010177;28;20191;-77
2022/08/21 07:01:04;;;;;;;3.72;2.00;;;;;;;21.03;47.86;97328.91;4988458;28;20244;-77
2022/08/21 07:03:36;;;;;;;6.07;2.33;;;;;;;21.25;46.49;97333.28;4980714;28;20644;-77
2022/08/21 07:06:02;;;;;;;7.25;2.22;;;;;;;21.49;46.17;97329.44;4993416;28;20190;-77
2022/08/21 07:08:27;;;;;;;4.70;2.35;;;;;;;21.68;45.41;97329.13;5017243;28;20358;-76
2022/08/21 07:10:55;;;;;;;5.82;2.70;;;;;;;21.82;45.29;97337.69;4980046;28;20058;-76
2022/08/21 07:13:20;;;;;;;5.03;2.22;;;;;;;22.13;44.58;97325.31;5012055;28;20044;-77
2022/08/21 07:15:46;;;;;;;4.07;2.28;;;;;;;22.29;44.76;97328.25;5014972;27;20170;-77
2022/08/21 07:18:12;;;;;;;4.10;2.75;;;;;;;22.52;44.96;97336.78;5015529;27;20380;-76
2022/08/21 07:20:39;;;;;;;4.85;2.40;;;;;;;22.77;44.66;97335.09;5021657;27;20208;-76
2022/08/21 07:23:07;;;;;;;5.28;2.50;;;;;;;23.16;44.01;97339.28;5000982;27;20200;-77
2022/08/21 07:25:33;;;;;;;5.38;2.13;;;;;;;23.31;43.04;97340.59;5016016;27;20359;-76
2022/08/21 07:27:58;;;;;;;5.57;2.17;;;;;;;23.25;42.54;97347.19;5002757;27;20244;-76
2022/08/21 07:30:24;;;;;;;7.97;2.70;;;;;;;23.44;43.02;97343.31;5016693;27;20205;-77
2022/08/21 07:32:49;;;;;;;4.93;2.40;;;;;;;23.54;42.37;97343.72;5014926;28;20376;-77
2022/08/21 07:35:16;;;;;;;4.05;2.40;;;;;;;23.99;41.74;97342.25;4991753;27;20170;-76
2022/08/21 07:37:41;;;;;;;5.80;2.47;;;;;;;24.17;41.04;97342.84;5001825;27;20369;-77
2022/08/21 07:40:07;;;;;;;5.68;2.40;;;;;;;24.38;40.04;97337.44;4999668;27;20186;-77
2022/08/21 07:42:33;;;;;;;6.45;2.28;;;;;;;24.28;39.34;97337.88;5013802;27;20626;-77
2022/08/21 07:44:58;;;;;;;11.70;3.88;;;;;;;24.47;38.68;97340.00;4999093;27;20177;-77
2022/08/21 07:47:23;;;;;;;5.95;2.50;;;;;;;24.76;38.09;97340.94;4983941;27;20314;-76
2022/08/21 07:49:49;;;;;;;5.78;2.28;;;;;;;24.81;38.29;97333.53;5012069;27;20648;-77
2022/08/21 07:52:14;;;;;;;4.40;2.20;;;;;;;25.22;37.00;97337.03;5015684;27;20201;-76
2022/08/21 07:54:39;;;;;;;5.25;1.98;;;;;;;25.15;36.29;97331.47;5040607;27;20322;-77
2022/08/21 07:57:05;;;;;;;5.60;2.05;;;;;;;25.37;35.58;97334.78;4999022;27;20637;-77
2022/08/21 07:59:30;;;;;;;6.90;2.53;;;;;;;25.66;35.98;97333.69;5014134;27;20212;-76
2022/08/21 08:01:56;;;;;;;6.70;2.58;;;;;;;25.81;35.82;97334.88;4992945;28;20773;-77
2022/08/21 08:04:21;;;;;;;6.28;2.42;;;;;;;26.10;35.52;97330.31;5038618;27;20170;-76
2022/08/21 08:06:47;;;;;;;4.60;2.60;;;;;;;26.33;35.77;97333.94;4998535;27;20628;-77
2022/08/21 08:09:12;;;;;;;4.95;2.15;;;;;;;26.59;35.35;97334.53;5002057;27;20189;-77
2022/08/21 08:11:38;;;;;;;4.80;1.92;;;;;;;26.46;34.95;97323.16;5019594;27;20362;-76
2022/08/21 08:14:04;;;;;;;5.28;2.13;;;;;;;26.84;34.92;97324.47;5016910;27;20216;-76
2022/08/21 08:16:29;;;;;;;4.22;2.50;;;;;;;27.17;34.58;97325.94;5003139;27;20386;-76
2022/08/21 08:18:55;;;;;;;6.03;2.00;;;;;;;27.31;34.16;97320.91;5020297;27;20212;-76
2022/08/21 08:21:21;;;;;;;4.68;2.40;;;;;;;27.14;34.38;97313.25;5018001;27;20184;-77
2022/08/21 08:23:47;;;;;;;4.65;2.17;;;;;;;27.18;33.54;97314.91;5005725;27;20162;-76
2022/08/21 08:26:12;;;;;;;4.53;2.38;;;;;;;27.19;32.92;97311.09;5016201;27;20527;-76
2022/08/21 08:28:38;;;;;;;4.68;2.58;;;;;;;27.30;33.00;97307.88;5019644;28;20089;-76
2022/08/21 08:31:04;;;;;;;5.85;2.17;;;;;;;27.70;32.69;97315.56;5006334;27;20046;-76
2022/08/21 08:33:29;;;;;;;4.55;3.47;;;;;;;27.90;32.10;97310.16;5003807;27;20037;-76
2022/08/21 08:35:55;;;;;;;4.75;2.03;;;;;;;28.21;32.71;97301.97;5015562;28;20046;-76
2022/08/21 08:38:22;;;;;;;7.43;2.90;;;;;;;27.41;32.50;97298.97;4977542;28;20020;-76
2022/08/21 08:41:12;;;;;;;4.80;2.40;;;;;;;27.93;32.73;97296.13;4983998;27;20035;-76
2022/08/21 08:43:39;;;;;;;4.32;2.22;;;;;;;28.43;30.78;97291.59;5011299;28;20050;-77
2022/08/21 08:46:11;;;;;;;5.97;2.90;;;;;;;28.06;31.67;97296.72;5025483;28;20039;-76
2022/08/21 08:48:44;;;;;;;5.18;2.80;;;;;;;27.56;32.32;97293.91;5012407;28;20094;-76
2022/08/21 08:51:19;;;;;;;5.53;2.70;;;;;;;27.69;32.58;97294.50;5010566;27;20261;-74
2022/08/21 08:53:56;;;;;;;4.90;2.97;;;;;;;27.74;32.06;97295.00;5016175;27;20514;-74
2022/08/21 08:56:28;;;;;;;4.50;2.97;;;;;;;27.62;32.39;97293.25;5032867;27;20236;-74
2022/08/21 08:58:57;;;;;;;7.03;2.58;;;;;;;28.29;31.58;97296.72;5016404;27;20672;-73
2022/08/21 09:01:22;;;;;;;5.50;2.95;;;;;;;28.78;30.45;97282.56;5029961;27;20269;-74
2022/08/21 09:03:49;;;;;;;3.88;2.40;;;;;;;28.76;31.11;97287.53;5044266;27;20200;-74
2022/08/21 09:06:27;;;;;;;5.85;2.67;;;;;;;28.42;30.89;97291.97;5016489;28;20281;-73
2022/08/21 09:09:19;;;;;;;4.38;2.42;;;;;;;28.28;31.30;97292.50;5015123;28;20197;-74
2022/08/21 09:11:51;;;;;;;4.22;2.55;;;;;;;28.75;30.37;97300.16;5048826;27;20218;-74
2022/08/21 09:14:23;;;;;;;5.13;2.45;;;;;;;28.64;30.07;97290.41;5011962;27;20183;-74
2022/08/21 09:17:04;;;;;;;6.22;2.53;;;;;;;28.56;30.39;97292.97;5044205;27;20156;-74
2022/08/21 09:19:55;;;;;;;5.80;2.88;;;;;;;28.79;30.62;97291.38;5042003;27;20194;-74
2022/08/21 09:22:43;;;;;;;4.35;2.22;;;;;;;28.72;30.39;97289.34;5007473;28;20251;-74
2022/08/21 09:25:26;;;;;;;4.68;2.28;;;;;;;29.61;29.79;97295.13;5042807;27;20266;-77
2022/08/21 09:27:52;;;;;;;4.75;2.70;;;;;;;29.89;29.01;97291.19;5015968;27;20097;-77
2022/08/21 09:30:19;;;;;;;6.20;2.35;;;;;;;29.30;29.56;97288.22;5015528;27;20192;-77
2022/08/21 09:32:45;;;;;;;4.35;2.33;;;;;;;29.60;29.57;97295.47;5010316;27;20687;-76
2022/08/21 09:35:13;;;;;;;4.35;2.70;;;;;;;29.91;28.55;97294.28;4994990;28;20191;-77
2022/08/21 09:37:52;;;;;;;4.15;2.67;;;;;;;29.75;29.81;97297.19;5040576;27;20196;-77
2022/08/21 09:40:37;;;;;;;4.68;3.30;;;;;;;29.72;28.94;97291.78;5007197;28;20650;-76
2022/08/21 09:43:09;;;;;;;4.53;2.55;;;;;;;30.10;27.78;97293.31;5011921;27;20656;-77
2022/08/21 09:45:35;;;;;;;6.22;2.97;;;;;;;30.23;27.12;97288.44;5033108;27;20203;-77
2022/08/21 09:48:21;;;;;;;6.10;2.40;;;;;;;29.37;28.49;97288.31;4999956;27;20259;-76
2022/08/21 09:50:48;;;;;;;4.57;2.28;;;;;;;29.04;29.99;97287.13;5035750;28;20656;-76
2022/08/21 09:53:28;;;;;;;4.60;2.63;;;;;;;29.10;29.63;97279.56;4983265;28;20245;-74
2022/08/21 09:58:48;;;;;;;3.58;2.38;;;;;;;29.55;28.74;97277.78;5020881;28;20191;-74
2022/08/21 10:01:20;;;;;;;4.07;2.33;;;;;;;29.58;27.56;97268.22;5001513;27;20172;-74
2022/08/21 10:03:46;;;;;;;2.78;2.17;;;;;;;29.84;27.88;97262.00;5004779;28;20136;-73
2022/08/21 10:06:23;;;;;;;3.88;2.10;;;;;;;29.79;28.23;97271.16;5006939;28;20631;-74
2022/08/21 10:08:48;;;;;;;5.00;1.80;;;;;;;30.05;27.49;97264.88;5029106;28;20210;-74
2022/08/21 10:11:15;;;;;;;4.35;2.20;;;;;;;30.04;27.34;97263.34;5000409;28;20273;-73
2022/08/21 10:13:50;;;;;;;2.83;1.90;;;;;;;30.14;26.36;97258.41;5008966;28;20680;-74
2022/08/21 10:16:26;;;;;;;4.40;2.15;;;;;;;30.18;25.99;97253.88;5032304;28;20585;-74
2022/08/21 10:18:57;;;;;;;3.10;2.15;;;;;;;29.83;26.63;97255.09;5032878;28;20702;-73
2022/08/21 10:21:25;;;;;;;2.33;1.92;;;;;;;30.38;26.24;97252.50;5025142;28;20304;-74
2022/08/21 10:23:55;;;;;;;3.50;2.30;;;;;;;30.39;25.78;97247.91;5008172;28;20697;-74
2022/08/21 10:26:25;;;;;;;3.83;2.20;;;;;;;30.64;25.44;97240.00;5015582;27;20232;-74
2022/08/21 10:29:13;;;;;;;3.78;2.13;;;;;;;31.24;25.99;97246.03;5026298;27;20179;-74
2022/08/21 10:32:04;;;;;;;4.07;2.35;;;;;;;30.86;25.42;97245.47;5043334;27;20227;-74
2022/08/21 10:35:00;;;;;;;4.43;1.90;;;;;;;30.83;25.93;97240.84;5005704;27;20186;-74
2022/08/21 10:37:51;;;;;;;4.10;2.25;;;;;;;31.29;25.46;97246.47;5026103;27;20622;-74
2022/08/21 10:40:26;;;;;;;3.63;1.83;;;;;;;31.54;25.81;97238.47;5047948;27;20297;-73
2022/08/21 10:43:04;;;;;;;2.53;2.15;;;;;;;31.75;25.85;97236.97;5030034;27;20217;-76
2022/08/21 10:45:42;;;;;;;6.32;2.60;;;;;;;32.14;24.45;97241.63;5034467;27;20213;-76
2022/08/21 10:48:16;;;;;;;7.53;2.88;;;;;;;31.69;24.74;97233.88;5010505;28;20159;-76
2022/08/21 10:50:50;;;;;;;3.45;2.50;;;;;;;31.76;25.04;97233.13;5011060;27;20217;-77
2022/08/21 10:53:24;;;;;;;3.40;2.40;;;;;;;31.98;24.11;97230.44;5026170;27;20270;-77
2022/08/21 10:55:56;;;;;;;5.00;2.70;;;;;;;32.18;23.52;97226.22;5033198;27;20295;-74
2022/08/21 10:58:43;;;;;;;2.85;2.40;;;;;;;32.32;23.43;97230.06;5032648;27;20319;-74
2022/08/21 11:01:20;;;;;;;6.20;2.92;;;;;;;32.16;23.67;97223.13;5030301;27;20195;-73
2022/08/21 11:03:52;;;;;;;3.65;2.08;;;;;;;32.34;23.98;97230.44;5049601;27;20344;-74
2022/08/21 11:06:27;;;;;;;4.35;2.67;;;;;;;32.38;23.80;97218.50;5012849;27;20087;-73
2022/08/21 11:08:57;;;;;;;2.22;1.92;;;;;;;32.63;23.27;97223.88;5029704;27;20196;-73
2022/08/21 11:11:25;;;;;;;3.72;2.38;;;;;;;32.37;23.79;97227.75;4996541;27;20239;-74
2022/08/21 11:13:56;;;;;;;3.05;2.45;;;;;;;31.93;23.59;97221.59;5048141;27;20631;-74
2022/08/21 11:16:43;;;;;;;2.85;2.35;;;;;;;31.75;23.84;97215.41;5029175;27;20642;-73
2022/08/21 11:19:31;;;;;;;5.72;2.08;;;;;;;31.34;24.73;97226.47;5048316;27;20233;-73
2022/08/21 11:22:16;;;;;;;7.03;2.50;;;;;;;31.07;25.21;97213.34;4995449;27;20157;-73
2022/08/21 11:24:46;;;;;;;2.50;2.13;;;;;;;31.63;23.96;97210.41;4996278;27;20277;-74
2022/08/21 11:27:26;;;;;;;3.65;2.50;;;;;;;31.48;25.25;97207.69;4992223;28;20279;-74
2022/08/21 11:29:54;;;;;;;3.78;2.17;;;;;;;31.03;24.82;97212.53;4992346;28;20186;-74
2022/08/21 11:32:41;;;;;;;3.45;2.80;;;;;;;30.58;25.84;97209.25;4975688;28;20206;-73
2022/08/21 11:35:28;;;;;;;4.78;3.17;;;;;;;30.25;26.06;97206.34;5051314;27;20190;-74
2022/08/21 11:38:34;;;;;;;4.25;2.03;;;;;;;30.65;25.55;97208.50;5067359;27;20281;-75
2022/08/21 11:41:29;;;;;;;3.15;2.10;;;;;;;30.58;25.82;97206.56;5033790;27;20277;-77
2022/08/21 11:43:57;;;;;;;2.38;1.65;;;;;;;30.70;25.51;97203.53;5010818;27;20207;-78